Time;durP1;ratioP1;P1;durP2;ratioP2;P2;SDS_P1;SDS_P2;PMS_P1;PMS_P2;Temp;Humidity;BMP_temperature;BMP_pressure;BME280_temperature;BME280_humidity;BME280_pressure;Samples;Min_cycle;Max_cycle;Signal;HPM_P1;HPM_P2
2023/03/30 00:00:32;;;;;;;8.35;2.08;;;15.90;99.10;;;;;;5018386;28;20033;-72
2023/03/30 00:03:01;;;;;;;9.93;2.50;;;16.00;99.00;;;;;;5035899;28;20081;-73
2023/03/30 00:05:27;;;;;;;8.93;2.10;;;16.00;99.00;;;;;;5020439;28;20033;-72
2023/03/30 00:07:53;;;;;;;10.68;2.55;;;16.00;98.90;;;;;;5024214;28;20025;-72
2023/03/30 00:10:19;;;;;;;9.07;2.08;;;15.90;99.20;;;;;;5024116;28;20029;-72
2023/03/30 00:12:47;;;;;;;8.38;2.35;;;15.80;99.20;;;;;;5048164;23;20043;-66
2023/03/30 00:15:15;;;;;;;9.70;2.40;;;15.90;99.30;;;;;;5074486;28;20024;-67
2023/03/30 00:17:41;;;;;;;7.35;2.42;;;15.90;99.00;;;;;;5073964;28;20423;-67
2023/03/30 00:20:10;;;;;;;13.00;2.63;;;15.90;99.00;;;;;;5074049;28;20104;-67
2023/03/30 00:22:40;;;;;;;9.23;2.30;;;15.70;99.20;;;;;;5074734;28;20028;-67
2023/03/30 00:25:09;;;;;;;8.68;2.15;;;15.70;99.40;;;;;;5056192;28;20032;-67
2023/03/30 00:27:36;;;;;;;11.20;2.63;;;15.60;99.40;;;;;;5054377;28;20507;-67
2023/03/30 00:30:07;;;;;;;15.07;2.67;;;15.50;99.50;;;;;;5054768;28;20048;-67
2023/03/30 00:32:33;;;;;;;10.43;2.40;;;15.40;99.80;;;;;;5054678;28;20055;-67
2023/03/30 00:34:59;;;;;;;9.63;2.67;;;15.60;99.90;;;;;;5052985;28;20474;-66
2023/03/30 00:37:26;;;;;;;12.95;2.35;;;15.50;99.80;;;;;;5054274;28;20028;-68
2023/03/30 00:39:52;;;;;;;65.00;36.20;;;15.60;99.90;;;;;;5054905;28;20025;-67
2023/03/30 00:42:18;;;;;;;21.60;4.40;;;15.50;99.90;;;;;;5054604;28;20381;-67
2023/03/30 00:45:08;;;;;;;15.13;5.45;;;15.60;99.80;;;;;;5054843;28;20029;-66
2023/03/30 00:47:40;;;;;;;32.22;16.27;;;15.60;99.90;;;;;;5055198;28;20032;-68
2023/03/30 00:50:08;;;;;;;29.83;12.57;;;15.50;99.90;;;;;;5056263;28;20025;-67
2023/03/30 00:52:36;;;;;;;9.43;2.33;;;15.50;99.90;;;;;;5055873;28;20021;-67
2023/03/30 00:55:06;;;;;;;19.17;2.40;;;15.50;99.90;;;;;;5056676;28;20106;-67
2023/03/30 00:57:35;;;;;;;13.95;2.53;;;15.50;99.90;;;;;;5055538;28;20029;-67
2023/03/30 01:00:01;;;;;;;7.40;1.90;;;15.40;99.90;;;;;;5053181;28;20029;-67
2023/03/30 01:02:32;;;;;;;10.30;1.98;;;15.30;99.90;;;;;;5054716;28;20031;-67
2023/03/30 01:04:58;;;;;;;13.25;2.63;;;15.30;99.90;;;;;;5052371;28;20075;-68
2023/03/30 01:07:24;;;;;;;13.82;2.55;;;15.50;99.90;;;;;;5052566;28;20029;-67
2023/03/30 01:09:51;;;;;;;12.77;2.97;;;15.50;99.90;;;;;;5052778;28;20021;-67
2023/03/30 01:12:18;;;;;;;10.15;2.45;;;15.50;99.90;;;;;;5053948;28;20048;-68
2023/03/30 01:14:43;;;;;;;11.52;2.85;;;15.40;99.90;;;;;;5054071;28;20025;-67
2023/03/30 01:17:28;;;;;;;15.38;2.95;;;15.40;99.90;;;;;;5054129;28;20500;-68
2023/03/30 01:20:21;;;;;;;8.80;2.38;;;15.30;99.90;;;;;;5055052;28;20016;-68
2023/03/30 01:23:07;;;;;;;6.13;2.17;;;15.30;99.90;;;;;;5070799;28;20099;-68
2023/03/30 01:26:02;;;;;;;9.88;2.60;;;15.20;99.90;;;;;;5073526;28;20016;-67
2023/03/30 01:28:49;;;;;;;8.48;2.20;;;15.40;99.90;;;;;;5073806;28;20035;-67
2023/03/30 01:31:47;;;;;;;11.13;3.05;;;15.50;99.90;;;;;;5073445;28;20496;-67
2023/03/30 01:34:50;;;;;;;12.02;2.60;;;15.40;99.90;;;;;;5062261;28;20544;-67
2023/03/30 01:37:49;;;;;;;13.15;2.50;;;15.40;99.90;;;;;;5052030;28;20056;-67
2023/03/30 01:40:22;;;;;;;12.77;2.40;;;15.50;99.90;;;;;;5053809;28;20017;-67
2023/03/30 01:43:14;;;;;;;14.48;2.38;;;15.50;99.90;;;;;;5053499;28;20024;-67
2023/03/30 01:45:50;;;;;;;11.52;2.45;;;15.60;99.90;;;;;;5053818;28;20090;-67
2023/03/30 01:48:44;;;;;;;7.95;2.15;;;15.60;99.90;;;;;;5053638;28;20024;-68
2023/03/30 01:51:16;;;;;;;11.13;2.60;;;15.60;99.90;;;;;;5053395;28;20591;-66
2023/03/30 01:54:03;;;;;;;11.85;2.80;;;15.70;99.90;;;;;;5054188;28;20041;-67
2023/03/30 01:56:40;;;;;;;8.30;2.40;;;15.70;99.90;;;;;;5053672;28;20032;-66
2023/03/30 01:59:28;;;;;;;13.52;2.75;;;15.70;99.90;;;;;;5053348;28;20029;-67
2023/03/30 02:01:59;;;;;;;12.18;2.20;;;15.70;99.90;;;;;;5053166;28;20021;-67
2023/03/30 02:04:26;;;;;;;10.98;2.75;;;15.80;99.90;;;;;;5062908;28;20103;-66
2023/03/30 02:06:58;;;;;;;11.05;2.65;;;15.80;99.90;;;;;;5077345;28;20536;-67
2023/03/30 02:09:26;;;;;;;12.68;3.25;;;15.70;99.90;;;;;;5080794;28;20021;-68
2023/03/30 02:11:52;;;;;;;15.68;2.50;;;15.70;99.90;;;;;;5076306;28;20527;-67
2023/03/30 02:14:26;;;;;;;14.65;3.30;;;15.70;99.90;;;;;;5074113;28;20041;-68
2023/03/30 02:16:59;;;;;;;14.48;3.35;;;15.60;99.90;;;;;;5074565;28;20133;-68
2023/03/30 02:19:26;;;;;;;15.32;2.35;;;15.40;99.90;;;;;;5077204;28;20027;-68
2023/03/30 02:21:51;;;;;;;12.63;2.15;;;15.40;99.90;;;;;;5076951;28;20031;-68
2023/03/30 02:24:22;;;;;;;11.57;2.95;;;15.30;99.90;;;;;;5075960;28;20016;-68
2023/03/30 02:26:50;;;;;;;14.32;3.00;;;15.20;99.90;;;;;;5077118;28;20384;-68
2023/03/30 02:29:16;;;;;;;12.50;2.70;;;15.20;99.90;;;;;;5076038;28;20055;-68
2023/03/30 02:31:44;;;;;;;17.88;3.65;;;15.20;99.90;;;;;;5077594;28;20032;-68
2023/03/30 02:34:23;;;;;;;11.73;2.47;;;15.30;99.90;;;;;;5071950;28;20120;-66
2023/03/30 02:37:13;;;;;;;10.70;3.22;;;15.20;99.90;;;;;;5057069;28;20068;-66
2023/03/30 02:39:47;;;;;;;23.27;3.60;;;15.10;99.90;;;;;;5057349;28;20048;-66
2023/03/30 02:42:22;;;;;;;12.25;2.80;;;14.90;99.90;;;;;;5056814;28;20017;-66
2023/03/30 02:45:18;;;;;;;14.15;2.78;;;14.80;99.90;;;;;;5057228;28;20029;-68
2023/03/30 02:48:31;;;;;;;11.68;3.17;;;14.70;99.90;;;;;;5056948;28;20032;-67
2023/03/30 02:51:12;;;;;;;19.63;3.70;;;14.70;99.90;;;;;;4995861;28;20037;-68
2023/03/30 02:53:51;;;;;;;13.77;3.20;;;14.70;99.90;;;;;;5056495;28;20373;-68
2023/03/30 02:56:26;;;;;;;12.13;2.90;;;14.80;99.90;;;;;;5055206;28;20029;-67
2023/03/30 02:59:04;;;;;;;15.10;3.50;;;14.80;99.90;;;;;;5056287;28;20033;-67
2023/03/30 03:01:33;;;;;;;14.40;2.88;;;14.90;99.90;;;;;;5055050;28;20024;-67
2023/03/30 03:04:02;;;;;;;17.77;3.47;;;14.80;99.90;;;;;;5056321;28;20394;-67
2023/03/30 03:06:28;;;;;;;15.38;3.28;;;14.80;99.90;;;;;;5056369;28;20018;-67
2023/03/30 03:08:54;;;;;;;14.27;3.92;;;14.80;99.90;;;;;;5055140;28;20029;-68
2023/03/30 03:11:20;;;;;;;16.17;3.85;;;14.90;99.90;;;;;;5056395;28;20048;-68
2023/03/30 03:13:46;;;;;;;14.10;3.47;;;14.90;99.90;;;;;;5069578;28;20029;-68
2023/03/30 03:16:12;;;;;;;14.52;3.08;;;14.90;99.90;;;;;;5074793;28;20033;-69
2023/03/30 03:18:38;;;;;;;13.55;3.30;;;14.80;99.90;;;;;;5074640;28;20388;-69
2023/03/30 03:21:06;;;;;;;20.42;4.13;;;14.80;99.90;;;;;;5075756;28;20052;-67
2023/03/30 03:23:31;;;;;;;13.35;2.53;;;14.60;99.90;;;;;;5074413;28;20031;-69
2023/03/30 03:25:58;;;;;;;13.63;3.50;;;14.50;99.90;;;;;;5075840;28;20103;-69
2023/03/30 03:28:24;;;;;;;18.13;3.70;;;14.50;99.90;;;;;;5075750;28;20024;-69
2023/03/30 03:30:49;;;;;;;20.03;3.57;;;14.50;99.90;;;;;;5074536;28;20123;-68
2023/03/30 03:33:15;;;;;;;14.97;3.27;;;14.50;99.90;;;;;;5072778;28;20116;-68
2023/03/30 03:35:44;;;;;;;16.37;3.30;;;14.50;99.90;;;;;;5056389;28;20039;-69
2023/03/30 03:38:10;;;;;;;22.35;3.58;;;14.40;99.90;;;;;;5055632;28;20032;-69
2023/03/30 03:40:35;;;;;;;17.92;3.97;;;14.30;99.90;;;;;;5054803;28;20025;-68
2023/03/30 03:43:01;;;;;;;12.05;3.15;;;14.20;99.90;;;;;;5055949;28;20025;-69
2023/03/30 03:45:27;;;;;;;14.70;3.40;;;14.20;99.90;;;;;;5055932;28;20369;-68
2023/03/30 03:47:53;;;;;;;14.18;3.28;;;14.20;99.90;;;;;;5055561;28;20025;-68
2023/03/30 03:50:18;;;;;;;18.15;3.95;;;14.30;99.90;;;;;;5064733;28;20035;-69
2023/03/30 03:52:44;;;;;;;20.93;3.43;;;14.40;99.90;;;;;;5074426;28;20024;-69
2023/03/30 03:55:10;;;;;;;17.17;3.53;;;14.30;99.90;;;;;;5072436;28;20279;-68
2023/03/30 03:57:36;;;;;;;14.93;3.17;;;14.20;99.90;;;;;;5074513;28;20404;-69
2023/03/30 04:00:03;;;;;;;16.08;3.30;;;14.20;99.90;;;;;;5072131;28;20040;-68
2023/03/30 04:02:29;;;;;;;15.13;3.50;;;14.00;99.90;;;;;;5055583;28;20033;-69
2023/03/30 04:04:56;;;;;;;;;;;14.00;99.90;;;;;;5055017;28;20044;-68
2023/03/30 04:07:24;;;;;;;13.40;3.53;;;14.00;99.90;;;;;;5054800;28;19950;-69
2023/03/30 04:09:50;;;;;;;15.45;3.53;;;14.00;99.90;;;;;;5055027;28;20021;-69
2023/03/30 04:12:15;;;;;;;15.95;3.78;;;14.00;99.90;;;;;;5055747;28;20086;-69
2023/03/30 04:14:41;;;;;;;14.30;3.83;;;14.00;99.90;;;;;;5075020;28;20516;-68
2023/03/30 04:17:06;;;;;;;18.33;4.17;;;13.90;99.90;;;;;;5072303;28;20427;-68
2023/03/30 04:19:32;;;;;;;17.08;3.70;;;13.90;99.90;;;;;;5054845;28;20059;-69
2023/03/30 04:21:57;;;;;;;18.60;3.67;;;13.90;99.90;;;;;;5055359;28;20029;-69
2023/03/30 04:24:28;;;;;;;16.57;4.70;;;14.00;99.90;;;;;;5054977;28;20283;-69
2023/03/30 04:26:56;;;;;;;16.55;3.72;;;14.00;99.90;;;;;;5060357;28;20040;-68
2023/03/30 04:29:22;;;;;;;17.40;4.10;;;13.90;99.90;;;;;;5074569;28;20024;-70
2023/03/30 04:31:49;;;;;;;18.42;4.57;;;13.80;99.90;;;;;;5074009;28;20035;-70
2023/03/30 04:34:20;;;;;;;15.93;3.17;;;13.80;99.90;;;;;;5072496;28;20032;-67
2023/03/30 04:36:48;;;;;;;20.77;4.13;;;13.80;99.90;;;;;;5087910;28;20095;-69
2023/03/30 04:39:17;;;;;;;26.30;9.68;;;13.90;99.90;;;;;;5064233;28;20034;-68
2023/03/30 04:41:44;;;;;;;17.92;4.00;;;13.80;99.90;;;;;;5074127;28;20021;-70
2023/03/30 04:44:10;;;;;;;12.98;3.58;;;13.90;99.90;;;;;;5056369;28;20024;-69
2023/03/30 04:46:36;;;;;;;20.73;3.67;;;13.90;99.90;;;;;;5054533;28;20043;-70
2023/03/30 04:49:03;;;;;;;11.85;3.03;;;13.90;99.90;;;;;;5056949;28;20041;-69
2023/03/30 04:51:29;;;;;;;17.17;3.45;;;13.90;99.90;;;;;;5063133;28;20083;-69
2023/03/30 04:53:54;;;;;;;19.10;3.55;;;13.80;99.90;;;;;;5060706;28;20025;-69
2023/03/30 04:56:22;;;;;;;16.47;4.10;;;13.70;99.90;;;;;;5053251;28;20473;-70
2023/03/30 04:58:48;;;;;;;23.20;4.10;;;13.70;99.90;;;;;;5053458;28;20021;-69
2023/03/30 05:01:14;;;;;;;16.43;3.53;;;13.70;99.90;;;;;;5054087;28;20116;-70
2023/03/30 05:03:39;;;;;;;11.93;3.90;;;13.60;99.90;;;;;;5053716;28;20025;-70
2023/03/30 05:06:05;;;;;;;14.27;3.43;;;13.50;99.90;;;;;;5061263;28;20033;-69
2023/03/30 05:08:32;;;;;;;23.50;8.82;;;13.40;99.90;;;;;;5073394;28;20254;-69
2023/03/30 05:11:01;;;;;;;16.02;3.88;;;13.40;99.90;;;;;;5055669;28;20138;-68
2023/03/30 05:13:27;;;;;;;11.88;3.75;;;13.40;99.90;;;;;;5080074;28;20649;-69
2023/03/30 05:15:54;;;;;;;16.45;3.80;;;13.40;99.90;;;;;;5071388;28;20024;-69
2023/03/30 05:18:20;;;;;;;18.52;3.58;;;13.60;99.90;;;;;;5057379;28;20025;-70
2023/03/30 05:20:45;;;;;;;18.58;3.88;;;13.70;99.90;;;;;;5072451;28;20017;-71
2023/03/30 05:23:11;;;;;;;22.40;4.18;;;13.80;99.90;;;;;;5070647;28;20143;-69
2023/03/30 05:25:37;;;;;;;16.10;5.00;;;13.80;99.90;;;;;;5070105;28;20389;-70
2023/03/30 05:28:02;;;;;;;25.97;4.87;;;13.80;99.90;;;;;;5067965;28;20579;-70
2023/03/30 05:30:28;;;;;;;17.50;5.20;;;13.80;99.90;;;;;;5064016;28;20041;-70
2023/03/30 05:32:54;;;;;;;22.73;5.57;;;13.70;99.90;;;;;;5061692;28;20100;-70
2023/03/30 05:35:20;;;;;;;20.13;5.47;;;13.60;99.90;;;;;;5051198;28;20125;-70
2023/03/30 05:37:47;;;;;;;19.15;5.55;;;13.60;99.90;;;;;;5053665;28;20029;-70
2023/03/30 05:40:13;;;;;;;23.35;6.03;;;13.50;99.90;;;;;;5068360;28;20020;-69
2023/03/30 05:42:38;;;;;;;19.48;5.63;;;13.50;99.90;;;;;;5073652;28;20440;-68
2023/03/30 05:45:05;;;;;;;21.97;4.93;;;13.40;99.90;;;;;;5065114;28;20032;-69
2023/03/30 05:47:30;;;;;;;22.73;5.40;;;13.30;99.90;;;;;;5052512;28;20021;-71
2023/03/30 05:49:56;;;;;;;15.10;4.27;;;13.30;99.90;;;;;;5068948;28;20070;-69
2023/03/30 05:52:22;;;;;;;17.73;4.47;;;13.30;99.90;;;;;;5075789;28;20070;-69
2023/03/30 05:54:48;;;;;;;17.73;4.65;;;13.30;99.90;;;;;;5073864;28;20067;-70
2023/03/30 05:57:13;;;;;;;23.63;6.10;;;13.30;99.90;;;;;;5075065;28;20370;-69
2023/03/30 05:59:39;;;;;;;25.40;5.30;;;13.40;99.90;;;;;;5059547;28;20052;-70
2023/03/30 06:02:05;;;;;;;16.17;5.50;;;13.30;99.90;;;;;;5055528;28;20109;-70
2023/03/30 06:04:31;;;;;;;;;;;13.30;99.90;;;;;;5053693;28;20052;-70
2023/03/30 06:06:56;;;;;;;14.40;3.95;;;13.10;99.90;;;;;;5073476;28;20268;-70
2023/03/30 06:09:24;;;;;;;17.07;4.30;;;13.10;99.90;;;;;;5070044;28;20169;-70
2023/03/30 06:11:50;;;;;;;16.98;4.00;;;13.10;99.90;;;;;;5061407;28;20104;-70
2023/03/30 06:14:16;;;;;;;18.55;3.80;;;13.10;99.90;;;;;;5050953;23;20350;-73
2023/03/30 06:16:41;;;;;;;17.57;4.37;;;13.20;99.90;;;;;;5013290;28;20096;-71
2023/03/30 06:19:07;;;;;;;18.97;4.03;;;13.20;99.90;;;;;;5011472;28;20701;-72
2023/03/30 06:21:33;;;;;;;20.23;4.77;;;13.20;99.90;;;;;;5025229;28;20291;-69
2023/03/30 06:23:58;;;;;;;19.30;5.50;;;13.10;99.90;;;;;;5029505;28;20068;-70
2023/03/30 06:26:24;;;;;;;16.10;4.93;;;13.20;99.90;;;;;;5026001;28;20096;-71
2023/03/30 06:28:49;;;;;;;19.50;4.47;;;13.10;99.90;;;;;;5032630;28;20033;-71
2023/03/30 06:31:15;;;;;;;22.17;4.40;;;13.10;99.90;;;;;;5021392;28;20029;-71
2023/03/30 06:33:40;;;;;;;14.87;4.10;;;13.00;99.90;;;;;;5015402;28;20285;-71
2023/03/30 06:36:10;;;;;;;19.17;4.20;;;13.00;99.90;;;;;;5017893;28;20470;-69
2023/03/30 06:38:36;;;;;;;19.88;5.32;;;13.00;99.90;;;;;;5021650;28;20049;-67
2023/03/30 06:41:08;;;;;;;19.13;5.63;;;12.90;99.90;;;;;;5018641;28;20096;-67
2023/03/30 06:43:35;;;;;;;18.60;5.05;;;12.90;99.90;;;;;;5023164;28;20290;-66
2023/03/30 06:46:00;;;;;;;;;;;12.90;99.90;;;;;;5032064;28;20027;-65
2023/03/30 06:48:26;;;;;;;22.45;4.95;;;12.80;99.90;;;;;;5031100;28;20288;-66
2023/03/30 06:50:53;;;;;;;23.47;6.30;;;12.80;99.90;;;;;;5028839;28;20030;-73
2023/03/30 06:53:20;;;;;;;19.77;5.63;;;12.70;99.90;;;;;;5033109;28;20056;-72
2023/03/30 06:55:50;;;;;;;24.42;5.90;;;12.80;99.90;;;;;;5029209;28;20513;-72
2023/03/30 06:58:16;;;;;;;18.35;4.32;;;12.70;99.90;;;;;;5014591;28;20030;-73
2023/03/30 07:00:41;;;;;;;16.57;4.47;;;12.70;99.90;;;;;;5031640;28;20087;-73
2023/03/30 07:03:07;;;;;;;19.50;5.07;;;12.60;99.90;;;;;;5029946;28;20056;-73
2023/03/30 07:05:33;;;;;;;27.63;5.13;;;12.60;99.90;;;;;;5023327;28;20059;-73
2023/03/30 07:07:59;;;;;;;26.73;6.07;;;12.60;99.90;;;;;;5037417;28;20025;-73
2023/03/30 07:10:24;;;;;;;25.42;4.95;;;12.60;99.90;;;;;;5038523;28;20057;-72
2023/03/30 07:12:50;;;;;;;14.10;5.10;;;12.60;99.90;;;;;;5039078;28;20401;-73
2023/03/30 07:15:16;;;;;;;24.20;6.47;;;12.50;99.90;;;;;;5041818;28;20279;-74
2023/03/30 07:17:42;;;;;;;14.13;5.13;;;12.60;99.90;;;;;;5020871;28;20284;-72
2023/03/30 07:20:09;;;;;;;15.15;4.85;;;12.60;99.90;;;;;;5021967;28;20034;-73
2023/03/30 07:22:35;;;;;;;18.83;5.97;;;12.60;99.90;;;;;;5020425;28;20026;-72
2023/03/30 07:25:01;;;;;;;20.48;5.07;;;12.60;99.90;;;;;;5020096;28;20030;-71
2023/03/30 07:27:26;;;;;;;18.17;5.03;;;12.70;99.90;;;;;;5031620;28;20026;-71
2023/03/30 07:29:53;;;;;;;19.23;5.50;;;12.70;99.90;;;;;;5039813;28;20029;-72
2023/03/30 07:32:19;;;;;;;22.73;6.18;;;12.70;99.90;;;;;;5034015;28;20633;-73
2023/03/30 07:34:45;;;;;;;18.65;5.38;;;12.80;99.90;;;;;;5027391;28;20089;-74
2023/03/30 07:37:13;;;;;;;20.10;5.32;;;12.80;99.90;;;;;;5018854;28;20021;-74
2023/03/30 07:39:38;;;;;;;16.88;4.22;;;12.90;99.90;;;;;;5017237;28;20116;-72
2023/03/30 07:42:04;;;;;;;17.53;5.47;;;12.80;99.90;;;;;;5019875;28;20050;-76
2023/03/30 07:44:30;;;;;;;17.38;5.07;;;12.80;99.90;;;;;;5020081;28;20475;-73
2023/03/30 07:46:58;;;;;;;10.85;4.65;;;12.70;99.90;;;;;;5019798;28;20058;-73
2023/03/30 07:49:25;;;;;;;16.40;4.95;;;12.70;99.90;;;;;;5018953;28;20037;-74
2023/03/30 07:51:52;;;;;;;13.88;4.93;;;12.70;99.90;;;;;;5017781;28;20037;-73
2023/03/30 07:54:18;;;;;;;15.43;3.95;;;12.70;99.90;;;;;;5038545;28;20042;-74
2023/03/30 07:56:43;;;;;;;17.00;5.10;;;12.60;99.90;;;;;;5041609;28;20033;-73
2023/03/30 07:59:12;;;;;;;17.83;5.10;;;12.70;99.90;;;;;;5046760;28;20025;-73
2023/03/30 08:01:37;;;;;;;19.08;5.35;;;12.50;99.90;;;;;;5064153;28;20032;-73
2023/03/30 08:04:03;;;;;;;17.30;4.77;;;12.50;99.90;;;;;;5046921;28;20021;-73
2023/03/30 08:06:29;;;;;;;14.35;4.40;;;12.50;99.90;;;;;;5049722;28;20026;-73
2023/03/30 08:08:55;;;;;;;17.93;5.37;;;12.40;99.90;;;;;;5052341;28;20041;-73
2023/03/30 08:11:21;;;;;;;16.65;4.70;;;12.40;99.90;;;;;;5049765;28;20116;-73
2023/03/30 08:13:47;;;;;;;12.68;4.97;;;12.60;99.90;;;;;;5043635;28;20052;-72
2023/03/30 08:16:12;;;;;;;13.23;4.50;;;12.60;99.90;;;;;;5043675;28;20033;-72
2023/03/30 08:18:40;;;;;;;12.05;4.57;;;12.70;99.90;;;;;;5039501;28;20033;-72
2023/03/30 08:21:06;;;;;;;12.63;4.63;;;12.70;99.90;;;;;;5036703;28;20029;-72
2023/03/30 08:23:32;;;;;;;15.13;4.15;;;12.80;99.90;;;;;;5037497;28;20046;-71
2023/03/30 08:25:59;;;;;;;12.47;3.93;;;12.90;99.90;;;;;;5036439;28;20033;-71
2023/03/30 08:28:24;;;;;;;11.27;4.47;;;13.10;99.90;;;;;;5034836;28;20021;-72
2023/03/30 08:30:50;;;;;;;13.75;3.83;;;13.20;99.90;;;;;;5035963;28;20032;-72
2023/03/30 08:33:16;;;;;;;11.98;3.92;;;13.40;99.90;;;;;;5034874;28;20040;-73
2023/03/30 08:35:46;;;;;;;11.70;3.73;;;13.40;99.90;;;;;;5036519;28;20424;-71
2023/03/30 08:38:16;;;;;;;11.20;4.22;;;13.60;99.90;;;;;;5035960;28;20064;-72
2023/03/30 08:40:43;;;;;;;12.57;4.00;;;13.80;99.90;;;;;;5036155;28;20049;-72
2023/03/30 08:43:18;;;;;;;10.90;3.15;;;14.20;99.90;;;;;;5034155;28;20478;-71
2023/03/30 08:45:44;;;;;;;8.48;3.35;;;14.60;99.90;;;;;;5034316;28;20068;-72
2023/03/30 08:48:21;;;;;;;13.77;3.47;;;14.80;99.90;;;;;;5017962;28;20025;-73
2023/03/30 08:50:58;;;;;;;8.30;2.97;;;15.10;99.90;;;;;;5016003;28;20040;-73
2023/03/30 08:53:24;;;;;;;6.65;2.80;;;15.30;99.90;;;;;;5015561;28;20434;-74
2023/03/30 08:56:15;;;;;;;5.95;2.50;;;15.50;99.90;;;;;;5014332;28;20414;-74
2023/03/30 08:58:51;;;;;;;7.70;2.35;;;16.10;99.90;;;;;;5014395;28;20080;-74
2023/03/30 09:01:26;;;;;;;5.93;2.60;;;17.40;99.90;;;;;;5014628;28;20029;-74
2023/03/30 09:04:15;;;;;;;8.25;2.80;;;18.00;99.90;;;;;;5014462;28;20026;-74
2023/03/30 09:06:59;;;;;;;4.75;1.92;;;17.50;99.90;;;;;;5014639;28;20033;-74
2023/03/30 09:09:28;;;;;;;8.90;2.92;;;16.80;99.90;;;;;;5014544;28;20060;-74
2023/03/30 09:12:21;;;;;;;7.15;3.15;;;16.30;99.90;;;;;;5014117;28;20091;-74
2023/03/30 09:15:04;;;;;;;10.05;3.35;;;15.80;99.90;;;;;;5014166;28;20046;-74
2023/03/30 09:17:54;;;;;;;7.80;3.05;;;15.70;99.90;;;;;;5012950;28;20022;-75
2023/03/30 09:20:24;;;;;;;8.45;2.92;;;15.40;99.90;;;;;;5016441;28;20029;-74
2023/03/30 09:22:52;;;;;;;9.48;3.83;;;15.30;99.90;;;;;;5014181;28;20022;-74
2023/03/30 09:25:45;;;;;;;9.15;3.63;;;15.10;99.90;;;;;;5013492;28;20022;-74
2023/03/30 09:28:36;;;;;;;10.35;4.68;;;14.90;99.90;;;;;;5029111;28;20553;-76
2023/03/30 09:31:11;;;;;;;9.15;3.17;;;14.80;99.90;;;;;;5013753;28;20034;-74
2023/03/30 09:33:45;;;;;;;10.20;3.58;;;14.60;99.90;;;;;;5028636;28;20034;-74
2023/03/30 09:36:24;;;;;;;9.40;3.40;;;14.60;99.90;;;;;;5029725;28;20483;-74
2023/03/30 09:38:51;;;;;;;6.10;3.05;;;14.60;99.90;;;;;;5029268;28;20390;-74
2023/03/30 09:41:28;;;;;;;8.38;2.80;;;14.50;99.90;;;;;;5014754;28;20018;-75
2023/03/30 09:43:57;;;;;;;14.00;2.90;;;14.40;99.90;;;;;;5014403;28;20070;-74
2023/03/30 09:46:22;;;;;;;7.30;3.10;;;14.20;99.90;;;;;;5014518;28;20022;-74
2023/03/30 09:48:48;;;;;;;10.67;3.00;;;14.10;99.90;;;;;;5030593;28;20041;-74
2023/03/30 09:51:22;;;;;;;;;;;14.00;99.90;;;;;;5016173;28;20022;-75
2023/03/30 09:53:57;;;;;;;14.05;3.88;;;14.00;99.90;;;;;;5014839;28;19957;-74
2023/03/30 09:56:34;;;;;;;8.02;2.83;;;13.90;99.90;;;;;;5029843;28;20029;-73
2023/03/30 09:59:20;;;;;;;;;;;14.00;99.90;;;;;;5017355;28;20382;-74
2023/03/30 10:01:45;;;;;;;10.90;2.83;;;14.10;99.90;;;;;;5012557;28;19918;-74
2023/03/30 10:04:12;;;;;;;11.00;3.10;;;14.20;99.90;;;;;;5012974;28;20022;-74
2023/03/30 10:06:45;;;;;;;11.90;4.97;;;14.50;99.90;;;;;;5012351;28;20037;-74
2023/03/30 10:09:12;;;;;;;9.40;3.20;;;15.00;99.90;;;;;;5013047;28;20037;-74
2023/03/30 10:11:42;;;;;;;8.82;3.13;;;15.20;99.90;;;;;;5015043;28;20029;-74
2023/03/30 10:14:28;;;;;;;8.68;2.88;;;15.30;99.90;;;;;;5024794;28;20490;-74
2023/03/30 10:16:55;;;;;;;14.85;3.50;;;15.20;99.90;;;;;;5028167;28;20034;-74
2023/03/30 10:19:21;;;;;;;9.82;2.72;;;15.20;99.90;;;;;;5027393;28;20363;-74
2023/03/30 10:21:51;;;;;;;8.20;3.05;;;15.20;99.90;;;;;;5012447;28;20490;-75
2023/03/30 10:24:24;;;;;;;7.10;2.65;;;15.50;99.90;;;;;;5013215;28;20418;-75
2023/03/30 10:26:54;;;;;;;10.45;3.15;;;15.80;99.90;;;;;;5013084;28;20505;-75
2023/03/30 10:29:22;;;;;;;7.22;2.78;;;16.00;99.90;;;;;;5012988;28;20032;-74
2023/03/30 10:31:58;;;;;;;7.78;2.63;;;16.20;99.90;;;;;;5011669;28;20046;-74
2023/03/30 10:34:32;;;;;;;11.25;3.42;;;16.30;99.90;;;;;;5011715;28;20096;-74
2023/03/30 10:36:57;;;;;;;9.10;3.05;;;16.60;99.90;;;;;;5014258;28;20390;-75
2023/03/30 10:39:28;;;;;;;10.13;2.97;;;17.00;99.90;;;;;;5018514;28;20026;-74
2023/03/30 10:41:55;;;;;;;8.50;3.42;;;18.20;99.90;;;;;;5017426;28;20025;-75
2023/03/30 10:44:23;;;;;;;8.05;3.00;;;18.60;99.90;;;;;;5017997;28;20076;-74
2023/03/30 10:46:52;;;;;;;8.57;2.70;;;18.30;99.90;;;;;;5019851;28;20022;-74
2023/03/30 10:49:30;;;;;;;9.07;2.92;;;18.10;99.90;;;;;;5015634;28;20033;-74
2023/03/30 10:52:02;;;;;;;8.07;2.92;;;17.80;99.90;;;;;;5024183;28;20112;-74
2023/03/30 10:54:47;;;;;;;7.25;2.50;;;17.60;99.90;;;;;;5036567;28;20029;-75
2023/03/30 10:57:16;;;;;;;9.93;2.90;;;17.40;99.90;;;;;;5036033;28;20095;-75
2023/03/30 10:59:41;;;;;;;11.02;2.90;;;17.30;99.90;;;;;;5037519;28;20037;-76
2023/03/30 11:02:16;;;;;;;9.83;3.10;;;17.20;99.90;;;;;;5035303;28;20072;-74
2023/03/30 11:04:48;;;;;;;11.30;3.10;;;17.10;99.90;;;;;;5036171;28;20374;-75
2023/03/30 11:07:37;;;;;;;10.75;2.80;;;17.00;99.90;;;;;;5034805;28;20021;-75
2023/03/30 11:10:14;;;;;;;6.63;2.92;;;16.80;99.90;;;;;;5025528;28;20022;-74
2023/03/30 11:12:44;;;;;;;6.65;2.78;;;16.70;99.90;;;;;;5018602;28;20486;-75
2023/03/30 11:15:34;;;;;;;6.25;3.20;;;16.60;99.90;;;;;;5021934;28;20064;-74
2023/03/30 11:18:12;;;;;;;8.07;3.13;;;16.60;99.90;;;;;;5017562;28;20022;-75
2023/03/30 11:21:00;;;;;;;7.43;2.72;;;16.70;99.90;;;;;;5016459;28;20026;-75
2023/03/30 11:23:48;;;;;;;7.28;2.70;;;16.90;99.90;;;;;;5015672;28;20148;-75
2023/03/30 11:26:37;;;;;;;7.80;2.95;;;17.00;99.90;;;;;;5030163;28;20125;-75
2023/03/30 11:29:25;;;;;;;5.90;2.67;;;17.10;99.90;;;;;;5037199;28;20025;-75
2023/03/30 11:32:33;;;;;;;8.98;3.10;;;17.20;99.90;;;;;;5036452;28;20021;-74
2023/03/30 11:35:29;;;;;;;7.07;3.47;;;17.20;99.90;;;;;;5051392;28;20370;-74
2023/03/30 11:38:20;;;;;;;13.50;3.28;;;17.10;99.90;;;;;;5036498;28;20064;-74
2023/03/30 11:40:50;;;;;;;9.07;3.20;;;17.10;99.90;;;;;;5051525;28;20070;-74
2023/03/30 11:43:19;;;;;;;12.32;3.65;;;17.00;99.90;;;;;;5056710;28;20025;-75
2023/03/30 11:46:01;;;;;;;6.35;3.00;;;17.10;99.90;;;;;;5035131;28;20029;-74
2023/03/30 11:48:26;;;;;;;7.35;3.10;;;17.00;99.90;;;;;;5036481;28;20032;-74
2023/03/30 11:51:21;;;;;;;10.13;3.70;;;17.00;99.90;;;;;;5051146;28;20029;-75
2023/03/30 11:54:06;;;;;;;10.50;3.10;;;17.10;99.90;;;;;;5051437;28;20075;-74
2023/03/30 11:56:53;;;;;;;8.43;3.08;;;17.20;99.90;;;;;;5036017;28;20057;-75
2023/03/30 11:59:36;;;;;;;7.78;3.55;;;17.20;99.90;;;;;;5035664;28;20026;-74
2023/03/30 12:02:24;;;;;;;8.93;3.35;;;17.30;99.90;;;;;;5033745;28;20053;-74
2023/03/30 12:04:54;;;;;;;;;;;17.30;99.90;;;;;;5014800;28;20028;-75
2023/03/30 12:07:29;;;;;;;10.10;3.17;;;17.30;99.90;;;;;;5014393;28;19905;-75
2023/03/30 12:09:57;;;;;;;10.23;3.45;;;17.30;99.90;;;;;;5015701;28;20030;-74
2023/03/30 12:12:37;;;;;;;11.73;3.30;;;17.20;99.90;;;;;;5016177;28;20030;-74
2023/03/30 12:15:27;;;;;;;11.45;3.35;;;17.00;99.90;;;;;;5073015;23;20029;-73
2023/03/30 12:18:11;;;;;;;12.35;3.70;;;16.70;99.90;;;;;;5059092;28;20045;-73
2023/03/30 12:21:09;;;;;;;10.30;3.22;;;16.40;99.90;;;;;;5034389;28;20025;-74
2023/03/30 12:23:47;;;;;;;8.48;3.92;;;16.00;99.90;;;;;;5039229;28;20021;-74
2023/03/30 12:26:31;;;;;;;13.40;4.32;;;15.70;99.90;;;;;;5035456;28;20029;-74
2023/03/30 12:29:07;;;;;;;13.02;4.47;;;15.40;99.90;;;;;;5017758;28;20025;-73
2023/03/30 12:31:54;;;;;;;20.85;5.57;;;15.10;99.90;;;;;;5016763;28;20124;-72
2023/03/30 12:34:21;;;;;;;10.10;3.85;;;14.70;99.90;;;;;;5035008;28;20045;-71
2023/03/30 12:36:51;;;;;;;13.77;3.88;;;14.40;99.90;;;;;;5017113;28;20394;-71
2023/03/30 12:39:24;;;;;;;9.68;3.22;;;14.10;99.90;;;;;;5017220;28;20021;-71
2023/03/30 12:42:04;;;;;;;11.18;3.20;;;13.80;99.90;;;;;;5016492;28;20116;-71
2023/03/30 12:44:37;;;;;;;9.38;3.25;;;13.70;99.90;;;;;;5036235;28;20432;-71
2023/03/30 12:47:21;;;;;;;13.38;4.00;;;13.70;99.90;;;;;;5016628;28;20056;-71
2023/03/30 12:50:09;;;;;;;11.35;4.97;;;13.70;99.90;;;;;;5035467;28;20102;-72
2023/03/30 12:52:55;;;;;;;7.78;3.42;;;13.80;99.90;;;;;;5034970;28;20022;-72
2023/03/30 12:55:26;;;;;;;10.20;3.17;;;13.80;99.90;;;;;;5016647;28;20404;-72
2023/03/30 12:58:10;;;;;;;9.57;3.58;;;13.90;99.90;;;;;;5033209;28;20040;-71
2023/03/30 13:00:48;;;;;;;9.07;3.13;;;13.90;99.90;;;;;;5026534;28;20516;-72
2023/03/30 13:03:33;;;;;;;7.53;2.55;;;13.90;99.90;;;;;;5025300;28;20029;-72